Time;durP1;ratioP1;P1;durP2;ratioP2;P2;SDS_P1;SDS_P2;PMS_P1;PMS_P2;Temp;Humidity;BMP_temperature;BMP_pressure;BME280_temperature;BME280_humidity;BME280_pressure;Samples;Min_cycle;Max_cycle;Signal;HPM_P1;HPM_P2
2023/06/15 00:00:44;;;;;;;2.35;2.15;;;;;;;24.05;38.74;101791.88;5024545;28;20522;-51
2023/06/15 00:03:10;;;;;;;2.92;2.28;;;;;;;24.04;38.92;101790.16;5018559;28;20050;-52
2023/06/15 00:05:36;;;;;;;2.70;2.47;;;;;;;24.03;39.07;101790.31;5020765;28;20109;-51
2023/06/15 00:08:01;;;;;;;3.50;2.10;;;;;;;24.00;39.13;101786.91;5020955;28;20065;-51
2023/06/15 00:10:26;;;;;;;3.10;2.05;;;;;;;24.00;39.38;101788.78;5021743;28;20037;-51
2023/06/15 00:12:52;;;;;;;5.90;2.35;;;;;;;23.99;39.46;101787.09;5021260;28;20117;-51
2023/06/15 00:15:17;;;;;;;2.50;2.30;;;;;;;23.99;39.38;101781.66;5021173;28;20046;-51
2023/06/15 00:17:43;;;;;;;2.95;2.10;;;;;;;23.97;39.07;101783.66;5021726;28;20033;-51
2023/06/15 00:20:12;;;;;;;2.67;2.45;;;;;;;23.95;39.48;101780.25;5018569;28;20083;-52
2023/06/15 00:22:38;;;;;;;3.25;2.40;;;;;;;23.94;39.37;101784.00;5019914;28;20029;-50
2023/06/15 00:25:05;;;;;;;2.70;2.50;;;;;;;23.93;39.69;101790.44;5019862;28;20467;-51
2023/06/15 00:27:31;;;;;;;3.20;2.20;;;;;;;23.93;39.77;101785.88;5021702;28;20404;-51
2023/06/15 00:29:56;;;;;;;3.60;2.50;;;;;;;23.90;39.51;101788.91;5022260;28;20036;-50
2023/06/15 00:32:21;;;;;;;3.17;2.35;;;;;;;23.89;39.67;101789.06;5020756;28;20145;-51
2023/06/15 00:34:47;;;;;;;3.17;2.70;;;;;;;23.89;40.05;101791.78;5020826;28;20025;-51
2023/06/15 00:37:12;;;;;;;3.72;2.17;;;;;;;23.89;40.15;101789.06;5020348;28;20041;-51
2023/06/15 00:39:37;;;;;;;4.07;2.22;;;;;;;23.87;40.09;101796.53;5020854;28;20030;-52
2023/06/15 00:42:03;;;;;;;3.67;2.75;;;;;;;23.86;39.96;101789.41;5020804;28;20037;-50
2023/06/15 00:44:28;;;;;;;2.60;2.40;;;;;;;23.85;39.99;101799.41;5021336;28;20385;-50
2023/06/15 00:46:54;;;;;;;3.95;2.42;;;;;;;23.84;40.20;101803.16;5021121;28;20049;-52
2023/06/15 00:49:21;;;;;;;2.40;2.20;;;;;;;23.81;40.47;101804.31;5019478;28;20535;-51
2023/06/15 00:51:46;;;;;;;4.63;2.60;;;;;;;23.80;40.25;101802.63;5019104;28;20040;-51
2023/06/15 00:54:13;;;;;;;3.28;2.30;;;;;;;23.80;40.48;101805.34;5013963;28;20513;-52
2023/06/15 00:56:39;;;;;;;2.65;2.40;;;;;;;23.77;40.39;101805.63;5022540;28;20084;-50
2023/06/15 00:59:05;;;;;;;4.65;2.70;;;;;;;23.76;40.32;101806.66;5015893;28;20550;-52
2023/06/15 01:01:30;;;;;;;3.08;2.40;;;;;;;23.75;40.21;101796.78;5020030;28;20088;-51
2023/06/15 01:03:57;;;;;;;3.00;2.45;;;;;;;23.75;40.74;101799.50;5020008;28;20037;-51
2023/06/15 01:06:24;;;;;;;2.65;2.28;;;;;;;23.73;40.77;101801.53;5018054;28;20048;-51
2023/06/15 01:08:52;;;;;;;2.78;2.50;;;;;;;23.72;40.64;101802.56;5020546;28;20113;-51
2023/06/15 01:11:18;;;;;;;2.60;2.40;;;;;;;23.72;40.76;101796.25;5020606;28;20045;-50
2023/06/15 01:13:44;;;;;;;2.70;2.50;;;;;;;23.71;40.60;101802.72;5020942;28;20056;-52
2023/06/15 01:16:21;;;;;;;2.47;2.28;;;;;;;23.70;40.15;101801.00;5011962;28;20030;-51
2023/06/15 01:18:50;;;;;;;4.05;2.53;;;;;;;23.68;40.78;101803.88;5019150;28;20061;-52
2023/06/15 01:21:17;;;;;;;3.47;2.38;;;;;;;23.68;40.58;101795.72;5018466;28;20038;-50
2023/06/15 01:24:05;;;;;;;2.88;2.50;;;;;;;23.70;40.33;101795.56;5018779;28;20551;-50
2023/06/15 01:26:32;;;;;;;3.15;2.47;;;;;;;23.67;40.76;101795.91;5021623;28;20030;-52
2023/06/15 01:28:59;;;;;;;3.22;2.33;;;;;;;23.65;40.45;101804.22;5019749;28;20041;-51
2023/06/15 01:31:25;;;;;;;3.03;2.40;;;;;;;23.64;40.62;101809.81;5018474;28;20041;-51
2023/06/15 01:33:51;;;;;;;3.47;2.47;;;;;;;23.63;40.51;101811.69;5022527;28;20187;-52
2023/06/15 01:36:18;;;;;;;2.33;2.13;;;;;;;23.61;40.59;101808.28;5021603;28;20034;-52
2023/06/15 01:38:49;;;;;;;5.10;2.55;;;;;;;23.59;40.52;101808.44;5025086;28;20041;-52
2023/06/15 01:41:17;;;;;;;3.60;2.75;;;;;;;23.57;41.04;101812.28;5022888;28;20072;-52
2023/06/15 01:43:45;;;;;;;3.10;2.55;;;;;;;23.55;41.02;101817.91;5023391;28;20068;-49
2023/06/15 01:46:10;;;;;;;4.75;2.67;;;;;;;23.55;40.45;101811.59;5023946;28;20076;-51
2023/06/15 01:48:36;;;;;;;2.50;2.30;;;;;;;23.54;41.01;101812.63;5022865;28;20549;-52
2023/06/15 01:51:02;;;;;;;2.53;2.28;;;;;;;23.53;40.73;101811.78;5022474;28;20046;-52
2023/06/15 01:53:28;;;;;;;4.90;2.78;;;;;;;23.53;40.82;101808.19;5023541;28;20097;-52
2023/06/15 01:55:54;;;;;;;3.45;2.72;;;;;;;23.51;40.27;101812.94;5022995;28;20042;-49
2023/06/15 01:58:19;;;;;;;4.03;2.72;;;;;;;23.52;40.80;101811.94;5024989;28;20124;-52
2023/06/15 02:00:46;;;;;;;2.78;2.42;;;;;;;23.51;40.80;101812.94;5021409;28;20146;-51
2023/06/15 02:03:12;;;;;;;4.05;3.38;;;;;;;23.50;40.46;101811.25;5024484;28;20041;-51
2023/06/15 02:05:41;;;;;;;7.10;2.75;;;;;;;23.50;40.85;101812.09;5022380;28;20033;-52
2023/06/15 02:08:10;;;;;;;3.08;2.50;;;;;;;23.49;40.47;101814.97;5022675;28;20068;-52
2023/06/15 02:10:37;;;;;;;2.90;2.60;;;;;;;23.48;40.73;101810.56;5020638;28;20467;-51
2023/06/15 02:13:03;;;;;;;3.20;2.67;;;;;;;23.47;40.83;101808.84;5024458;28;20038;-50
2023/06/15 02:15:29;;;;;;;5.50;2.67;;;;;;;23.47;40.61;101811.56;5023289;28;20498;-51
2023/06/15 02:18:00;;;;;;;10.98;3.05;;;;;;;23.45;40.64;101805.44;5023777;28;20029;-50
2023/06/15 02:20:27;;;;;;;3.85;2.95;;;;;;;23.44;40.34;101818.19;5022975;28;20041;-51
2023/06/15 02:22:53;;;;;;;3.08;2.78;;;;;;;23.43;40.90;101817.31;5023525;28;20038;-51
2023/06/15 02:25:19;;;;;;;3.10;2.78;;;;;;;23.42;40.82;101812.91;5022759;28;20040;-49
2023/06/15 02:27:44;;;;;;;4.25;2.55;;;;;;;23.41;40.53;101819.34;5022860;28;20083;-52
2023/06/15 02:30:11;;;;;;;3.08;2.78;;;;;;;23.40;40.53;101819.50;5022930;28;20033;-51
2023/06/15 02:32:39;;;;;;;4.75;2.65;;;;;;;23.38;40.84;101816.94;5021936;28;20048;-51
2023/06/15 02:35:07;;;;;;;3.45;2.70;;;;;;;23.37;40.86;101820.66;5023045;28;20083;-52
2023/06/15 02:37:33;;;;;;;2.83;2.60;;;;;;;23.36;40.75;101827.13;5023495;28;20086;-51
2023/06/15 02:39:58;;;;;;;3.10;2.80;;;;;;;23.36;40.80;101827.13;5023185;28;20029;-51
2023/06/15 02:42:24;;;;;;;3.40;2.72;;;;;;;23.37;40.86;101827.97;5022205;28;20036;-51
2023/06/15 02:44:49;;;;;;;3.50;2.70;;;;;;;23.34;40.35;101822.84;5022253;28;20034;-52
2023/06/15 02:47:15;;;;;;;4.05;2.60;;;;;;;23.34;40.65;101831.88;5021920;28;20504;-51
2023/06/15 02:49:40;;;;;;;2.97;2.63;;;;;;;23.32;40.74;101827.59;5023642;28;20037;-52
2023/06/15 02:52:06;;;;;;;6.45;2.42;;;;;;;23.31;40.41;101832.19;5022531;28;20037;-52
2023/06/15 02:54:31;;;;;;;4.70;3.10;;;;;;;23.29;40.67;101828.75;5022777;28;20068;-51
2023/06/15 02:56:57;;;;;;;3.20;2.90;;;;;;;23.30;40.84;101826.91;5022395;28;20041;-51
2023/06/15 02:59:25;;;;;;;4.70;2.88;;;;;;;23.27;40.97;101822.63;5023046;28;20116;-52
2023/06/15 03:01:53;;;;;;;4.35;2.67;;;;;;;23.27;41.13;101830.78;5021164;28;20046;-52
2023/06/15 03:04:21;;;;;;;5.22;2.88;;;;;;;23.25;40.90;101830.09;5022546;28;20448;-52
2023/06/15 03:06:50;;;;;;;3.25;2.95;;;;;;;23.24;40.93;101825.66;5022421;28;20030;-50
2023/06/15 03:09:20;;;;;;;4.30;2.60;;;;;;;23.24;40.99;101833.81;5021326;28;20404;-51
2023/06/15 03:11:46;;;;;;;3.10;2.45;;;;;;;23.23;40.73;101835.69;5022542;28;20038;-51
2023/06/15 03:14:12;;;;;;;2.88;2.67;;;;;;;23.21;40.98;101832.28;5022721;28;20064;-52
2023/06/15 03:16:46;;;;;;;3.38;3.08;;;;;;;23.21;40.74;101826.00;5022639;28;20030;-51
2023/06/15 03:19:12;;;;;;;2.88;2.58;;;;;;;23.19;40.58;101826.16;5021382;28;20045;-50
2023/06/15 03:21:37;;;;;;;3.10;2.80;;;;;;;23.19;40.62;101833.44;5020128;28;20041;-51
2023/06/15 03:24:03;;;;;;;3.38;2.97;;;;;;;23.18;40.68;101831.72;5019749;28;20080;-51
2023/06/15 03:26:28;;;;;;;3.40;2.97;;;;;;;23.18;40.72;101839.88;5023061;28;20022;-51
2023/06/15 03:28:57;;;;;;;4.18;2.85;;;;;;;23.16;40.79;101837.31;5022708;28;20489;-49
2023/06/15 03:31:22;;;;;;;4.03;2.78;;;;;;;23.15;40.67;101840.19;5021358;28;20037;-52
2023/06/15 03:33:48;;;;;;;5.22;2.95;;;;;;;23.15;40.69;101837.47;5019844;28;20041;-51
2023/06/15 03:36:13;;;;;;;3.35;3.05;;;;;;;23.13;40.78;101842.19;5019642;28;20045;-51
2023/06/15 03:38:41;;;;;;;3.00;2.70;;;;;;;23.12;40.96;101841.34;5021223;28;20129;-51
2023/06/15 03:41:07;;;;;;;3.92;3.05;;;;;;;23.11;41.13;101839.63;5021823;28;20037;-51
2023/06/15 03:43:37;;;;;;;5.03;2.95;;;;;;;23.11;41.31;101834.19;5021895;28;20026;-50
2023/06/15 03:46:02;;;;;;;3.10;2.80;;;;;;;23.09;41.02;101835.38;5021301;28;20034;-49
2023/06/15 03:48:28;;;;;;;4.95;3.03;;;;;;;23.08;41.45;101833.69;5022522;28;20065;-51
2023/06/15 03:50:53;;;;;;;3.20;2.90;;;;;;;23.07;40.91;101840.97;5022173;28;20483;-51
2023/06/15 03:53:18;;;;;;;4.55;3.45;;;;;;;23.06;41.04;101830.28;5022213;28;20045;-51
2023/06/15 03:55:44;;;;;;;5.15;2.97;;;;;;;23.06;40.94;101836.56;5020409;28;20034;-51
2023/06/15 03:58:09;;;;;;;3.67;3.33;;;;;;;23.03;41.03;101836.84;5020768;28;20124;-50
2023/06/15 04:00:35;;;;;;;4.90;3.75;;;;;;;23.03;40.95;101836.84;5020249;28;20451;-50
2023/06/15 04:03:01;;;;;;;3.40;3.10;;;;;;;23.01;41.13;101839.69;5020734;28;20061;-51
2023/06/15 04:05:26;;;;;;;3.75;2.70;;;;;;;23.01;41.10;101847.00;5021869;28;20030;-52
2023/06/15 04:07:51;;;;;;;3.33;2.78;;;;;;;23.01;41.04;101836.13;5021587;28;20091;-51
2023/06/15 04:10:17;;;;;;;3.05;2.85;;;;;;;22.99;41.44;101843.59;5021453;28;20033;-50
2023/06/15 04:12:42;;;;;;;3.10;2.90;;;;;;;22.98;41.65;101842.75;5021493;28;20034;-51
2023/06/15 04:15:08;;;;;;;5.00;3.10;;;;;;;22.97;41.34;101843.72;5020019;28;20044;-51
2023/06/15 04:17:33;;;;;;;4.95;3.22;;;;;;;22.96;41.35;101842.03;5020288;28;20033;-51
2023/06/15 04:19:59;;;;;;;4.05;2.80;;;;;;;22.97;41.44;101849.16;5020998;28;20388;-51
2023/06/15 04:22:25;;;;;;;3.65;2.63;;;;;;;22.93;41.82;101842.34;5020942;28;20068;-50
2023/06/15 04:24:51;;;;;;;5.80;3.17;;;;;;;22.96;41.47;101852.03;5024721;28;20025;-50
2023/06/15 04:27:19;;;;;;;8.85;3.13;;;;;;;22.95;41.54;101856.63;5017913;28;20480;-50
2023/06/15 04:29:45;;;;;;;4.63;2.97;;;;;;;22.95;41.39;101855.78;5020648;28;20405;-51
2023/06/15 04:32:14;;;;;;;4.30;3.25;;;;;;;22.92;41.74;101853.34;5020784;28;20391;-50
2023/06/15 04:34:45;;;;;;;5.85;3.53;;;;;;;22.92;41.37;101859.63;5020311;28;20037;-50
2023/06/15 04:37:11;;;;;;;6.60;3.22;;;;;;;22.93;41.46;101864.06;5020529;28;20037;-51
2023/06/15 04:39:37;;;;;;;6.88;3.40;;;;;;;22.92;41.80;101864.22;5019908;28;20177;-50
2023/06/15 04:42:03;;;;;;;6.18;3.42;;;;;;;22.91;41.43;101863.38;5020779;28;20049;-50
2023/06/15 04:44:28;;;;;;;5.22;3.42;;;;;;;22.90;41.50;101858.94;5021486;28;20045;-51
2023/06/15 04:46:54;;;;;;;6.70;3.53;;;;;;;22.92;41.86;101866.94;5020763;28;20033;-50
2023/06/15 04:49:20;;;;;;;4.25;3.83;;;;;;;22.89;41.77;101873.53;5018885;28;20033;-50
2023/06/15 04:51:45;;;;;;;4.55;3.22;;;;;;;22.90;42.07;101867.06;5018044;28;20116;-51
2023/06/15 04:54:10;;;;;;;4.38;3.03;;;;;;;22.89;42.13;101872.69;5019665;28;20379;-50
2023/06/15 04:56:36;;;;;;;5.22;3.50;;;;;;;22.90;42.21;101875.22;5021615;28;20025;-50
2023/06/15 04:59:02;;;;;;;5.20;3.00;;;;;;;22.88;42.10;101879.97;5022545;28;20510;-50
2023/06/15 05:01:27;;;;;;;6.97;3.42;;;;;;;22.89;41.97;101881.69;5019617;28;20057;-51
2023/06/15 05:03:54;;;;;;;6.93;3.13;;;;;;;22.88;42.13;101871.81;5021643;28;20049;-50
2023/06/15 05:06:19;;;;;;;4.05;3.70;;;;;;;22.89;42.29;101873.53;5016710;28;20060;-51
2023/06/15 05:08:45;;;;;;;6.32;3.60;;;;;;;22.88;42.35;101882.66;5020222;28;20053;-51
2023/06/15 05:11:10;;;;;;;3.55;3.25;;;;;;;22.90;42.35;101882.53;5017153;28;20036;-50
2023/06/15 05:13:35;;;;;;;7.20;3.10;;;;;;;22.90;42.44;101891.53;5019890;28;20025;-51
2023/06/15 05:16:01;;;;;;;5.20;3.55;;;;;;;22.90;42.79;101880.66;5019246;28;20120;-49
2023/06/15 05:18:26;;;;;;;4.47;3.35;;;;;;;22.91;42.45;101886.97;5019281;28;20034;-52
2023/06/15 05:20:52;;;;;;;4.35;2.92;;;;;;;22.91;43.00;101889.69;5019647;28;20297;-49
2023/06/15 05:23:20;;;;;;;9.07;3.67;;;;;;;22.91;43.06;101887.81;5020896;28;20108;-49
2023/06/15 05:25:46;;;;;;;11.52;3.75;;;;;;;22.92;42.79;101886.78;5020275;28;20506;-49
2023/06/15 05:28:11;;;;;;;8.60;3.95;;;;;;;22.92;42.82;101883.22;5020061;28;20026;-50
2023/06/15 05:30:37;;;;;;;8.30;3.45;;;;;;;22.94;43.25;101882.09;5019380;28;20136;-50
2023/06/15 05:33:02;;;;;;;8.20;4.00;;;;;;;22.93;42.83;101885.78;5020000;28;20033;-50
2023/06/15 05:35:28;;;;;;;9.35;3.88;;;;;;;22.94;43.25;101890.22;5017236;28;20037;-50
2023/06/15 05:37:53;;;;;;;7.00;3.63;;;;;;;22.95;43.58;101888.34;5018890;28;20114;-49
2023/06/15 05:40:18;;;;;;;6.47;3.80;;;;;;;22.95;42.94;101886.50;5019238;28;20034;-50
2023/06/15 05:42:44;;;;;;;6.97;4.47;;;;;;;22.96;43.31;101890.06;5021132;28;20064;-49
2023/06/15 05:45:10;;;;;;;5.82;3.58;;;;;;;22.95;43.58;101899.22;5015158;28;20038;-50
2023/06/15 05:47:35;;;;;;;9.45;4.10;;;;;;;22.95;43.21;101894.63;5019185;28;20041;-49
2023/06/15 05:50:01;;;;;;;7.57;3.17;;;;;;;22.96;43.07;101890.06;5020093;28;20038;-50
2023/06/15 05:52:27;;;;;;;6.15;3.45;;;;;;;22.96;43.54;101892.75;5018821;28;20155;-49
2023/06/15 05:54:53;;;;;;;7.40;3.92;;;;;;;22.97;43.41;101903.47;5018982;28;20518;-49
2023/06/15 05:57:18;;;;;;;7.90;3.35;;;;;;;22.96;43.49;101899.06;5019399;28;20033;-50
2023/06/15 05:59:47;;;;;;;7.50;3.72;;;;;;;22.98;43.48;101896.19;5020097;28;20045;-48
2023/06/15 06:02:13;;;;;;;8.50;4.15;;;;;;;22.97;43.63;101898.06;5018978;28;20448;-49
2023/06/15 06:04:38;;;;;;;5.05;4.13;;;;;;;22.97;43.53;101900.78;5019971;28;20026;-48
2023/06/15 06:07:07;;;;;;;6.93;4.25;;;;;;;22.99;43.48;101900.63;5020779;28;20029;-47
2023/06/15 06:09:33;;;;;;;6.43;3.70;;;;;;;22.98;43.16;101897.06;5020239;28;20033;-50
2023/06/15 06:12:00;;;;;;;7.00;4.10;;;;;;;22.98;43.56;101888.91;5018506;28;20037;-50
2023/06/15 06:14:26;;;;;;;5.28;3.65;;;;;;;22.99;43.23;101890.59;5018960;28;20480;-50
2023/06/15 06:16:52;;;;;;;6.32;4.63;;;;;;;22.98;43.20;101886.19;5019568;28;20030;-50
2023/06/15 06:19:17;;;;;;;5.55;4.13;;;;;;;22.99;43.38;101896.03;5019558;28;20037;-50
2023/06/15 06:21:43;;;;;;;10.70;4.65;;;;;;;23.00;43.12;101897.75;5018681;28;20029;-49
2023/06/15 06:24:08;;;;;;;8.02;4.18;;;;;;;23.00;43.17;101888.75;5023233;28;20078;-50
2023/06/15 06:26:37;;;;;;;7.40;3.80;;;;;;;23.01;43.24;101901.31;5024642;28;20026;-50
2023/06/15 06:29:03;;;;;;;7.88;4.15;;;;;;;22.99;43.56;101893.31;5023661;28;20033;-50
2023/06/15 06:31:29;;;;;;;6.25;4.15;;;;;;;23.00;43.24;101891.47;5020055;28;20079;-48
2023/06/15 06:33:54;;;;;;;7.03;4.53;;;;;;;23.00;43.24;101891.47;5019531;28;20117;-46
2023/06/15 06:36:19;;;;;;;10.25;3.95;;;;;;;23.00;43.52;101891.47;5022868;28;20068;-50
2023/06/15 06:38:45;;;;;;;5.80;3.90;;;;;;;23.01;43.77;101893.16;5021838;28;20064;-49
2023/06/15 06:41:10;;;;;;;7.43;4.75;;;;;;;23.02;43.36;101898.44;5022907;28;20033;-50
2023/06/15 06:43:36;;;;;;;5.72;4.18;;;;;;;23.02;43.53;101892.19;5021942;28;20060;-47
2023/06/15 06:46:01;;;;;;;5.22;4.20;;;;;;;23.02;43.30;101901.16;5024296;28;20126;-48
2023/06/15 06:48:27;;;;;;;6.07;4.18;;;;;;;23.02;43.25;101901.16;5022402;28;20041;-49
2023/06/15 06:50:52;;;;;;;4.50;3.92;;;;;;;23.02;43.41;101893.03;5020186;28;20041;-49
2023/06/15 06:53:18;;;;;;;7.13;4.63;;;;;;;23.01;43.36;101891.31;5022311;28;20088;-49
2023/06/15 06:55:44;;;;;;;7.63;4.18;;;;;;;23.02;43.78;101898.44;5022607;28;20026;-50
2023/06/15 06:58:11;;;;;;;5.55;4.43;;;;;;;23.03;43.33;101899.34;5022375;28;20046;-49
2023/06/15 07:00:36;;;;;;;6.97;4.60;;;;;;;23.03;44.07;101899.34;5022555;28;20088;-49
2023/06/15 07:03:02;;;;;;;8.80;4.70;;;;;;;23.04;44.06;101906.50;5023047;28;20037;-50
2023/06/15 07:05:27;;;;;;;6.90;5.00;;;;;;;23.04;43.69;101903.78;5022184;28;20034;-50
2023/06/15 07:07:52;;;;;;;6.90;5.10;;;;;;;23.03;43.58;101902.91;5022827;28;20464;-48
2023/06/15 07:10:18;;;;;;;10.88;5.85;;;;;;;23.03;44.00;101896.63;5023061;28;20112;-48
2023/06/15 07:12:43;;;;;;;8.55;5.70;;;;;;;23.03;44.24;101902.91;5021938;28;20026;-47
2023/06/15 07:15:09;;;;;;;11.02;5.35;;;;;;;23.03;44.50;101902.91;5021153;28;20495;-49
2023/06/15 07:17:34;;;;;;;6.90;5.43;;;;;;;23.02;44.42;101901.16;5022220;28;20040;-49
2023/06/15 07:20:00;;;;;;;10.00;5.10;;;;;;;23.04;44.17;101906.50;5020803;28;20040;-50
2023/06/15 07:22:26;;;;;;;11.20;5.53;;;;;;;23.02;44.32;101903.88;5023039;28;20034;-50
2023/06/15 07:24:51;;;;;;;10.40;5.55;;;;;;;23.03;44.20;101897.47;5022156;28;20169;-51
2023/06/15 07:27:18;;;;;;;8.23;4.93;;;;;;;23.04;43.98;101909.19;5022745;28;20422;-49
2023/06/15 07:29:43;;;;;;;7.63;5.05;;;;;;;23.03;44.16;101902.91;5022429;28;20033;-50
2023/06/15 07:32:09;;;;;;;9.60;5.75;;;;;;;23.05;43.80;101896.47;5021911;28;20418;-48
2023/06/15 07:34:34;;;;;;;7.05;5.05;;;;;;;23.03;44.29;101900.19;5023112;28;20033;-50
2023/06/15 07:37:00;;;;;;;8.52;5.10;;;;;;;23.05;43.71;101908.19;5019854;28;20468;-49
2023/06/15 07:39:25;;;;;;;10.45;4.90;;;;;;;23.05;43.65;101900.03;5022433;28;20072;-50
2023/06/15 07:41:51;;;;;;;6.13;4.07;;;;;;;23.06;44.23;101906.34;5020873;28;20034;-49
2023/06/15 07:44:16;;;;;;;9.65;5.05;;;;;;;23.06;43.95;101903.63;5021152;28;20095;-49
2023/06/15 07:46:41;;;;;;;6.55;4.60;;;;;;;23.07;44.00;101900.72;5021688;28;20052;-49
2023/06/15 07:49:07;;;;;;;9.57;4.30;;;;;;;23.08;43.91;101905.16;5022203;28;20041;-50
2023/06/15 07:51:36;;;;;;;8.57;3.90;;;;;;;23.09;43.43;101898.72;5022063;28;20034;-49
2023/06/15 07:54:02;;;;;;;7.63;4.97;;;;;;;23.10;43.73;101903.16;5021647;28;20060;-49
2023/06/15 07:56:28;;;;;;;6.07;3.88;;;;;;;23.10;43.91;101900.44;5021287;28;20121;-50
2023/06/15 07:58:53;;;;;;;8.15;3.75;;;;;;;23.13;43.71;101900.13;5020233;28;20045;-50
2023/06/15 08:01:20;;;;;;;7.70;3.90;;;;;;;23.13;43.37;101902.84;5020435;28;20058;-49
2023/06/15 08:03:46;;;;;;;5.05;3.67;;;;;;;23.14;43.42;101909.13;5021750;28;20072;-51
2023/06/15 08:06:12;;;;;;;6.28;3.53;;;;;;;23.15;43.69;101908.09;5022159;28;20030;-50
2023/06/15 08:08:37;;;;;;;5.18;3.70;;;;;;;23.15;43.29;101900.81;5021980;28;20029;-50
2023/06/15 08:11:05;;;;;;;6.78;3.50;;;;;;;23.16;43.13;101907.94;5021690;28;20033;-49
2023/06/15 08:13:31;;;;;;;8.68;3.72;;;;;;;23.17;43.35;101908.78;5021913;28;20033;-49
2023/06/15 08:15:57;;;;;;;5.53;3.35;;;;;;;23.17;43.14;101906.09;5021831;28;20064;-48
2023/06/15 08:18:22;;;;;;;6.30;3.55;;;;;;;23.17;43.37;101901.53;5021659;28;20029;-48
2023/06/15 08:20:47;;;;;;;6.20;3.45;;;;;;;23.19;43.33;101909.53;5021844;28;20041;-49
2023/06/15 08:23:13;;;;;;;6.38;3.47;;;;;;;23.19;42.94;101906.81;5021929;28;20040;-50
2023/06/15 08:25:38;;;;;;;5.43;3.13;;;;;;;23.20;42.83;101903.06;5021288;28;20037;-49
2023/06/15 08:28:04;;;;;;;6.25;3.38;;;;;;;23.20;43.21;101917.50;5022184;28;20045;-49
2023/06/15 08:30:30;;;;;;;5.57;3.30;;;;;;;23.20;43.28;101911.22;5022470;28;20033;-50
2023/06/15 08:32:55;;;;;;;4.63;3.00;;;;;;;23.22;42.87;101914.63;5022655;28;20038;-51
2023/06/15 08:35:20;;;;;;;6.65;3.72;;;;;;;23.22;43.17;101904.59;5020854;28;20033;-49
2023/06/15 08:37:46;;;;;;;5.47;3.90;;;;;;;23.22;42.71;101901.88;5021029;28;20038;-50
2023/06/15 08:40:11;;;;;;;6.13;3.28;;;;;;;23.22;42.60;101907.31;5021314;28;20033;-46
2023/06/15 08:42:38;;;;;;;3.92;2.97;;;;;;;23.23;43.01;101908.19;5022198;28;20091;-49
2023/06/15 08:45:05;;;;;;;6.93;3.65;;;;;;;23.23;42.71;101902.78;5021495;28;20480;-48
2023/06/15 08:47:33;;;;;;;3.35;2.80;;;;;;;23.25;42.58;101905.31;5021983;28;20549;-50
2023/06/15 08:50:00;;;;;;;3.10;2.80;;;;;;;23.24;42.52;101904.47;5021796;28;20480;-49
2023/06/15 08:52:27;;;;;;;3.88;3.00;;;;;;;23.25;42.66;101905.31;5021713;28;20518;-49
2023/06/15 08:54:53;;;;;;;5.00;3.10;;;;;;;23.25;42.27;101906.19;5020542;28;20703;-50
2023/06/15 08:57:20;;;;;;;5.22;3.28;;;;;;;23.26;42.58;101907.88;5021260;28;20423;-49
2023/06/15 08:59:45;;;;;;;5.25;3.88;;;;;;;23.27;42.53;101904.16;5022297;28;20029;-50
2023/06/15 09:02:19;;;;;;;5.97;3.60;;;;;;;23.28;42.17;101899.56;5020448;28;20068;-48
2023/06/15 09:04:45;;;;;;;3.70;2.90;;;;;;;23.27;42.56;101904.16;5022044;28;20045;-50
2023/06/15 09:07:10;;;;;;;5.97;2.97;;;;;;;23.28;42.39;101905.84;5019870;28;20091;-50
2023/06/15 09:09:36;;;;;;;4.55;2.90;;;;;;;23.28;42.58;101900.41;5022271;28;20029;-50
2023/06/15 09:12:01;;;;;;;4.50;3.15;;;;;;;23.29;42.40;101893.97;5020796;28;20181;-49
2023/06/15 09:14:27;;;;;;;6.70;3.35;;;;;;;23.30;41.89;101900.25;5019308;28;20389;-48
2023/06/15 09:16:52;;;;;;;4.15;3.10;;;;;;;23.30;42.25;101894.84;5020690;28;20084;-50
2023/06/15 09:19:19;;;;;;;4.07;3.28;;;;;;;23.31;42.21;101902.00;5021299;28;20025;-50
2023/06/15 09:21:52;;;;;;;5.57;3.15;;;;;;;23.31;42.24;101900.13;5021020;28;20040;-50
2023/06/15 09:24:21;;;;;;;4.72;3.10;;;;;;;23.31;42.12;101899.28;5021492;28;20147;-50
2023/06/15 09:26:47;;;;;;;4.18;3.35;;;;;;;23.32;42.20;101898.25;5020690;28;20456;-49
2023/06/15 09:29:13;;;;;;;4.35;3.60;;;;;;;23.32;41.99;101890.97;5021184;28;20072;-47
2023/06/15 09:31:40;;;;;;;6.13;3.55;;;;;;;23.32;42.12;101898.25;5020497;28;20431;-49
2023/06/15 09:34:11;;;;;;;3.70;3.00;;;;;;;23.32;42.35;101896.41;5019403;28;20533;-49
2023/06/15 09:36:48;;;;;;;6.28;3.65;;;;;;;23.32;42.19;101890.97;5020976;28;20430;-51
2023/06/15 09:39:15;;;;;;;5.32;3.28;;;;;;;23.33;41.84;101892.66;5022303;28;20383;-51
2023/06/15 09:41:56;;;;;;;4.93;3.33;;;;;;;23.35;41.84;101892.50;5020124;28;20033;-49
2023/06/15 09:44:22;;;;;;;4.93;3.65;;;;;;;23.35;42.21;101896.06;5020877;28;20407;-48
2023/06/15 09:46:52;;;;;;;6.85;3.33;;;;;;;23.35;42.18;101887.06;5019622;28;20022;-49
2023/06/15 09:49:25;;;;;;;5.13;3.45;;;;;;;23.36;41.68;101886.91;5021225;28;20033;-50
2023/06/15 09:51:52;;;;;;;5.35;3.28;;;;;;;23.36;41.68;101884.19;5020932;28;20025;-48
2023/06/15 09:54:20;;;;;;;4.10;3.30;;;;;;;23.38;41.61;101884.03;5020553;28;20084;-50
2023/06/15 09:56:48;;;;;;;5.78;3.28;;;;;;;23.38;41.50;101887.63;5020773;28;20121;-50
2023/06/15 09:59:13;;;;;;;4.82;3.30;;;;;;;23.39;41.99;101892.03;5024852;28;20040;-51
2023/06/15 10:01:42;;;;;;;4.28;3.28;;;;;;;23.39;41.71;101886.59;5024990;28;20042;-49
2023/06/15 10:04:09;;;;;;;4.13;3.30;;;;;;;23.40;41.16;101887.47;5025034;28;20037;-49
2023/06/15 10:06:39;;;;;;;3.53;3.10;;;;;;;23.40;41.57;101882.88;5024121;28;20025;-50
2023/06/15 10:09:08;;;;;;;5.20;3.20;;;;;;;23.40;41.87;101880.16;5023947;28;20117;-50
2023/06/15 10:11:40;;;;;;;8.43;3.30;;;;;;;23.40;41.68;101891.03;5024220;28;20026;-50
2023/06/15 10:14:29;;;;;;;6.03;3.22;;;;;;;23.43;41.79;101885.25;5022092;28;20037;-50
2023/06/15 10:17:02;;;;;;;3.17;2.88;;;;;;;23.40;41.55;101880.16;5028751;28;20026;-50
2023/06/15 10:19:31;;;;;;;4.68;3.28;;;;;;;23.41;41.56;101894.59;5023118;28;20108;-48
2023/06/15 10:21:57;;;;;;;6.57;3.20;;;;;;;23.42;41.41;101885.44;5022963;28;20025;-50
2023/06/15 10:24:24;;;;;;;7.57;3.33;;;;;;;23.41;41.84;101890.00;5021896;28;20040;-49
2023/06/15 10:26:50;;;;;;;3.72;3.40;;;;;;;23.42;41.43;101885.44;5022930;28;20030;-50
2023/06/15 10:29:25;;;;;;;8.55;3.45;;;;;;;23.43;41.84;101889.84;5021459;28;20049;-48
2023/06/15 10:32:09;;;;;;;9.45;3.30;;;;;;;23.43;41.28;101892.56;5024010;28;20025;-49
2023/06/15 10:34:38;;;;;;;5.22;3.47;;;;;;;23.42;41.24;101891.72;5022969;28;20029;-49
2023/06/15 10:37:12;;;;;;;4.82;3.20;;;;;;;23.42;41.31;101891.72;5018205;28;20471;-50
2023/06/15 10:39:45;;;;;;;4.32;2.90;;;;;;;23.42;41.37;101889.00;5019285;28;20049;-50
2023/06/15 10:42:14;;;;;;;5.53;3.30;;;;;;;23.42;41.59;101889.00;5021268;28;20030;-50
2023/06/15 10:44:40;;;;;;;5.18;3.38;;;;;;;23.43;41.06;101896.13;5022152;28;20026;-50
2023/06/15 10:47:13;;;;;;;4.00;3.17;;;;;;;23.43;41.13;101893.41;5022075;28;20029;-50
2023/06/15 10:49:49;;;;;;;5.22;3.33;;;;;;;23.45;40.93;101889.69;5022987;28;20040;-48
2023/06/15 10:52:14;;;;;;;4.22;3.13;;;;;;;23.42;41.20;101875.41;5022673;28;20029;-48
2023/06/15 10:54:40;;;;;;;5.75;3.75;;;;;;;23.45;41.21;101892.41;5022127;28;20056;-50
2023/06/15 10:57:06;;;;;;;3.55;3.25;;;;;;;23.46;40.93;101888.69;5023707;28;20030;-49
2023/06/15 10:59:56;;;;;;;8.02;3.42;;;;;;;23.48;41.45;101873.94;5022369;28;20380;-51
2023/06/15 11:02:28;;;;;;;5.18;3.67;;;;;;;23.48;41.26;101873.09;5007070;28;20056;-50
2023/06/15 11:05:09;;;;;;;5.40;3.35;;;;;;;23.49;41.03;101872.06;5020271;28;20033;-50
2023/06/15 11:07:35;;;;;;;;;;;;;;;23.57;40.86;101864.81;5022401;28;20502;-50
2023/06/15 11:10:03;;;;;;;5.82;3.95;;;;;;;23.51;41.28;101872.75;5021320;28;19956;-50
2023/06/15 11:12:36;;;;;;;5.22;3.35;;;;;;;23.52;41.15;101874.47;5021512;28;20080;-48
2023/06/15 11:15:03;;;;;;;5.85;3.67;;;;;;;23.52;41.09;101878.03;5020958;28;20133;-50
2023/06/15 11:17:30;;;;;;;6.72;3.38;;;;;;;23.53;41.20;101871.59;5021226;28;20041;-49
2023/06/15 11:19:56;;;;;;;7.43;3.38;;;;;;;23.54;41.18;101877.88;5026875;28;20029;-49
2023/06/15 11:22:27;;;;;;;5.47;3.42;;;;;;;23.53;41.32;101874.31;5019845;28;20462;-50